»·PEaware :: QXE7674 KPDX-KSEA

QXE7674 :: KPDX-KSEA

FLIGHT INFORMATION

Flight Status: Arrived
Operator:
Horizon Air
More flights by this operator :: More flights under this callsign
Pilot: Skye D. (10623)
Aircraft: CANADAIR CL-600 CRJ-200
(CRJ2)
More flights by this aircraft type
Origin: KPDX Portland Intl
United States
Destination: KSEA Seattle-Tacoma Intl
United States
More flights between these airports :: More routes between these airports
Route: +COUGA KRIEG HAWKZ6
File this flight plan on PilotEdge
Remarks:
Altitude:
(Current/Filed)
20,000ft
Speed:
(Current/Filed)
353kts
Departed: 10-Feb-18 04:38 PM
Arrived: 10-Feb-18 05:09 PM
Distance/Time
Traveled:
112nm/0:31
Distance/Time
To Go:
Arrived

Flight Plot

Page will automatically refresh every two minutes.

Flight plan parsing failed; only flown route is shown


Map Options




Map Legend


Flown Route
Filed Route
Departure Airport
Arrival Airport
Navaid (VOR, NDB)
Fix

Horizontal Profiles

Position Reports

Time Latitude Longitude Heading Altitude Ground
Speed
10-Feb-18 16:24 45.587011 -122.593128 39 34ft 0kts
10-Feb-18 16:25 45.587011 -122.593128 39 34ft 0kts
10-Feb-18 16:26 45.587011 -122.593128 39 34ft 0kts
10-Feb-18 16:27 45.587011 -122.593128 39 34ft 0kts
10-Feb-18 16:28 45.587011 -122.593128 39 34ft 0kts
10-Feb-18 16:29 45.587011 -122.593128 39 34ft 0kts
10-Feb-18 16:30 45.587011 -122.593128 39 34ft 0kts
10-Feb-18 16:31 45.587011 -122.593128 39 34ft 0kts
10-Feb-18 16:32 45.587011 -122.593128 39 34ft 0kts
10-Feb-18 16:33 45.587011 -122.593128 39 34ft 0kts
10-Feb-18 16:34 45.587011 -122.593128 39 34ft 0kts
10-Feb-18 16:35 45.587011 -122.593128 39 34ft 0kts
10-Feb-18 16:36 45.586763 -122.593441 39 34ft 2kts
10-Feb-18 16:37 45.586514 -122.594018 96 34ft 2kts
10-Feb-18 16:38 45.586606 -122.594312 129 34ft 0kts
10-Feb-18 16:39 45.586022 -122.593286 128 34ft 17kts
10-Feb-18 16:40 45.583192 -122.587559 119 34ft 24kts
10-Feb-18 16:41 45.581359 -122.583508 199 34ft 0kts
10-Feb-18 16:42 45.581347 -122.583514 199 34ft 0kts
10-Feb-18 16:43 45.581291 -122.583542 199 34ft 1kts
10-Feb-18 16:44 45.581077 -122.585389 297 34ft 32kts
10-Feb-18 16:45 45.593826 -122.616647 300 1070ft 156kts
10-Feb-18 16:46 45.611828 -122.666683 296 3125ft 207kts
10-Feb-18 16:47 45.636398 -122.732526 301 5874ft 237kts
10-Feb-18 16:48 45.691408 -122.749473 11 8607ft 261kts
10-Feb-18 16:49 45.754502 -122.736381 4 11309ft 268kts
10-Feb-18 16:50 45.818726 -122.725269 3 13683ft 276kts
10-Feb-18 16:51 45.887103 -122.713314 3 15887ft 283kts
10-Feb-18 16:52 45.963534 -122.699877 2 18019ft 291kts
10-Feb-18 16:53 46.044090 -122.685677 2 20000ft 297kts
10-Feb-18 16:54 46.127479 -122.684674 349 20396ft 336kts
10-Feb-18 16:55 46.217093 -122.701775 349 20389ft 354kts
10-Feb-18 16:56 46.311349 -122.720271 349 20387ft 363kts
10-Feb-18 16:57 46.403937 -122.724996 355 20387ft 370kts
10-Feb-18 16:58 46.491487 -122.728168 354 20336ft 336kts
10-Feb-18 16:59 46.575770 -122.731230 354 18568ft 330kts
10-Feb-18 17:00 46.660957 -122.734327 355 16911ft 323kts
10-Feb-18 17:01 46.734075 -122.736986 355 15277ft 317kts
10-Feb-18 17:02 46.806051 -122.710086 31 13590ft 323kts
10-Feb-18 17:03 46.866409 -122.637196 38 11963ft 298kts
10-Feb-18 17:04 46.919233 -122.563673 42 10484ft 291kts
10-Feb-18 17:05 46.973140 -122.482228 42 8899ft 284kts
10-Feb-18 17:06 47.027786 -122.430230 26 7526ft 271kts
10-Feb-18 17:07 47.086430 -122.380275 26 6008ft 247kts
10-Feb-18 17:08 47.132243 -122.341300 26 5981ft 202kts
10-Feb-18 17:09 47.177319 -122.309217 358 5321ft 226kts
10-Feb-18 17:10 47.232776 -122.309699 358 4152ft 218kts
10-Feb-18 17:11 47.282594 -122.309290 358 3180ft 187kts
10-Feb-18 17:12 47.327886 -122.308914 358 2316ft 162kts
10-Feb-18 17:13 47.363817 -122.308621 358 1682ft 139kts
10-Feb-18 17:14 47.397535 -122.308397 359 1067ft 139kts
10-Feb-18 17:15 47.428371 -122.308112 359 531ft 129kts
10-Feb-18 17:16 47.443453 -122.307395 61 438ft 13kts
10-Feb-18 17:17 47.441494 -122.306332 180 438ft 17kts
10-Feb-18 17:18 47.440057 -122.302901 61 438ft 14kts
10-Feb-18 17:19 47.439484 -122.300087 227 438ft 3kts
10-Feb-18 17:20 47.439237 -122.300600 235 438ft 0kts
10-Feb-18 17:21 47.439237 -122.300600 235 438ft 0kts

Navigation Log

Ident Type
Flight plan parsing failed, navigation log unavailable